Terminal Aerodrome Forecast
Issued by NWS

Home | Current Version | Previous Version | Graphics & Text | Print | Product List | Glossary On
Versions: 1 2 3 4 5 6 7 8 9 10 11 12 13 14 15 16 17 18
000
FTUS43 KGRB 231128
TAFAUW
TAF
KAUW 231128Z 2312/2412 19006KT P6SM SCT250 WS020/24035KT
     FM231400 20010G15KT P6SM SCT250
     FM231600 20011G17KT P6SM SCT050
     FM240000 17007KT P6SM SCT060 BKN100
     FM240600 17008KT P6SM SCT050 BKN080
      TEMPO 2406/2410 3SM SHRA BKN035
     FM241000 16007KT P6SM SHRA OVC025=

USA.gov is the U.S. government's official web portal to all federal, state and local government web resources and services.